createdAt,value
2022-08-05T00:01:36.347Z,100489.38
2022-08-05T00:04:16.966Z,100496.00
2022-08-05T00:06:47.194Z,100497.94
2022-08-05T00:09:15.743Z,100499.00
2022-08-05T00:11:56.089Z,100494.66
2022-08-05T00:14:29.220Z,100495.72
2022-08-05T00:17:01.973Z,100492.25
2022-08-05T00:19:40.655Z,100488.75
2022-08-05T00:22:13.582Z,100484.50
2022-08-05T00:24:45.797Z,100484.72
2022-08-05T00:27:35.848Z,100499.34
2022-08-05T00:30:05.340Z,100497.72
2022-08-05T00:32:39.333Z,100487.91
2022-08-05T00:35:09.513Z,100494.44
2022-08-05T00:37:52.356Z,100483.75
2022-08-05T00:40:28.230Z,100488.47
2022-08-05T00:42:59.865Z,100478.78
2022-08-05T00:45:42.732Z,100479.88
2022-08-05T00:48:13.134Z,100476.47
2022-08-05T00:50:44.055Z,100475.81
2022-08-05T00:54:00.086Z,100466.00
2022-08-05T00:56:00.565Z,100464.38
2022-08-05T00:58:29.786Z,100462.72
2022-08-05T01:00:57.689Z,100458.38
2022-08-05T01:06:01.151Z,100460.69
2022-08-05T01:08:42.701Z,100453.44
2022-08-05T01:11:22.726Z,100451.56
2022-08-05T01:14:11.117Z,100447.13
2022-08-05T01:16:49.861Z,100455.38
2022-08-05T01:19:56.954Z,100457.31
2022-08-05T01:22:38.757Z,100466.59
2022-08-05T01:25:40.530Z,100472.34
2022-08-05T01:28:23.521Z,100481.72
2022-08-05T01:30:55.693Z,100481.03
2022-08-05T01:33:35.435Z,100474.06
2022-08-05T01:36:12.825Z,100477.06
2022-08-05T01:38:45.269Z,100482.75
2022-08-05T01:41:16.032Z,100475.59
2022-08-05T01:43:51.213Z,100480.31
2022-08-05T01:46:42.174Z,100484.06
2022-08-05T01:49:23.631Z,100483.38
2022-08-05T01:51:58.846Z,100494.31
2022-08-05T01:54:33.179Z,100491.91
2022-08-05T01:58:11.253Z,100498.47
2022-08-05T01:59:53.749Z,100510.25
2022-08-05T02:02:26.028Z,100507.69
2022-08-05T02:04:57.622Z,100498.75
2022-08-05T02:07:26.561Z,100488.97
2022-08-05T02:09:58.501Z,100497.28
2022-08-05T02:12:35.725Z,100495.66
2022-08-05T02:15:12.401Z,100491.28
2022-08-05T02:18:30.758Z,100514.88
2022-08-05T02:20:51.858Z,100511.50
2022-08-05T02:23:23.810Z,100497.25
2022-08-05T02:25:54.839Z,100504.78
2022-08-05T02:28:28.903Z,100532.75
2022-08-05T02:31:04.069Z,100523.66
2022-08-05T02:33:38.864Z,100503.03
2022-08-05T02:36:13.620Z,100499.53
2022-08-05T02:38:53.268Z,100504.09
2022-08-05T02:41:28.779Z,100506.81
2022-08-05T02:44:13.040Z,100515.88
2022-08-05T02:46:58.945Z,100491.84
2022-08-05T02:49:36.852Z,100501.81
2022-08-05T02:52:09.374Z,100495.63
2022-08-05T02:54:41.553Z,100506.56
2022-08-05T02:58:11.187Z,100498.59
2022-08-05T03:00:02.272Z,100484.38
2022-08-05T03:02:37.769Z,100459.13
2022-08-05T03:05:07.959Z,100453.72
2022-08-05T03:08:00.670Z,100476.25
2022-08-05T03:10:25.648Z,100498.84
2022-08-05T03:12:55.042Z,100508.06
2022-08-05T03:15:23.533Z,100509.97
2022-08-05T03:17:55.644Z,100524.53
2022-08-05T03:20:24.439Z,100548.19
2022-08-05T03:22:57.160Z,100569.16
2022-08-05T03:25:33.725Z,100577.53
2022-08-05T03:28:18.822Z,100570.81
2022-08-05T03:30:48.866Z,100534.41
2022-08-05T03:33:19.010Z,100505.94
2022-08-05T03:35:48.289Z,100503.47
2022-08-05T03:38:23.825Z,100502.69
2022-08-05T03:41:00.916Z,100500.94
2022-08-05T03:44:08.996Z,100506.63
2022-08-05T03:46:26.790Z,100532.00
2022-08-05T03:48:59.283Z,100555.66
2022-08-05T03:52:39.423Z,100539.88
2022-08-05T03:56:01.205Z,100521.19
2022-08-05T03:57:16.797Z,100523.09
2022-08-05T04:00:05.927Z,100535.72
2022-08-05T04:02:52.257Z,100557.56
2022-08-05T04:05:33.261Z,100572.06
2022-08-05T04:08:03.287Z,100592.91
2022-08-05T04:10:38.144Z,100605.66
2022-08-05T04:13:07.589Z,100619.31
2022-08-05T04:15:36.042Z,100637.56
2022-08-05T04:18:06.709Z,100640.56
2022-08-05T04:20:37.021Z,100647.88
2022-08-05T04:23:05.230Z,100629.91
2022-08-05T04:25:56.456Z,100628.16
2022-08-05T04:28:21.063Z,100653.44
2022-08-05T04:30:58.769Z,100666.88
2022-08-05T04:34:18.673Z,100660.53
2022-08-05T04:36:49.893Z,100671.34
2022-08-05T04:39:06.280Z,100681.34
2022-08-05T04:41:36.730Z,100694.97
2022-08-05T04:44:09.491Z,100700.53
2022-08-05T04:46:38.711Z,100692.63
2022-08-05T04:49:12.406Z,100703.75
2022-08-05T04:51:44.116Z,100693.13
2022-08-05T04:54:12.329Z,100695.91
2022-08-05T04:56:40.329Z,100689.50
2022-08-05T04:59:21.388Z,100681.47
2022-08-05T05:02:07.653Z,100669.09
2022-08-05T05:04:47.710Z,100647.63
2022-08-05T05:07:23.874Z,100625.19
2022-08-05T05:09:57.575Z,100626.00
2022-08-05T05:12:29.286Z,100613.38
2022-08-05T05:14:57.244Z,100616.88
2022-08-05T05:17:56.645Z,100608.75
2022-08-05T05:20:14.816Z,100639.34
2022-08-05T05:22:44.263Z,100663.59
2022-08-05T05:25:16.027Z,100673.47
2022-08-05T05:27:53.531Z,100669.81
2022-08-05T05:30:29.542Z,100669.94
2022-08-05T05:33:09.339Z,100652.94
2022-08-05T05:35:47.379Z,100600.66
2022-08-05T05:38:22.367Z,100559.13
2022-08-05T05:40:54.875Z,100513.13
2022-08-05T05:43:54.008Z,100498.75
2022-08-05T05:46:17.221Z,100508.69
2022-08-05T05:48:48.154Z,100535.72
2022-08-05T05:51:24.473Z,100547.47
2022-08-05T05:53:59.288Z,100563.69
2022-08-05T05:56:34.105Z,100577.34
2022-08-05T05:59:05.874Z,100582.91
2022-08-05T06:01:37.381Z,100602.78
2022-08-05T06:04:07.541Z,100605.50
2022-08-05T06:06:36.124Z,100591.84
2022-08-05T06:09:07.547Z,100577.28
2022-08-05T06:11:39.326Z,100576.25
2022-08-05T06:14:07.419Z,100585.06
2022-08-05T06:16:36.943Z,100590.22
2022-08-05T06:19:07.357Z,100606.91
2022-08-05T06:21:38.847Z,100599.22
2022-08-05T06:24:12.839Z,100597.06
2022-08-05T06:26:51.027Z,100596.66
2022-08-05T06:29:43.034Z,100591.66
2022-08-05T06:32:25.173Z,100596.13
2022-08-05T06:34:57.101Z,100604.94
2022-08-05T06:37:52.261Z,100603.88
2022-08-05T06:40:18.130Z,100610.13
2022-08-05T06:42:52.175Z,100607.22
2022-08-05T06:46:03.069Z,100617.81
2022-08-05T06:48:37.162Z,100618.34
2022-08-05T06:50:57.406Z,100621.75
2022-08-05T06:53:39.391Z,100623.44
2022-08-05T06:56:25.633Z,100638.69
2022-08-05T06:58:57.227Z,100632.25
2022-08-05T07:01:27.579Z,100641.09
2022-08-05T07:04:00.415Z,100647.38
2022-08-05T07:06:28.832Z,100656.19
2022-08-05T07:08:59.021Z,100668.00
2022-08-05T07:11:30.988Z,100668.22
2022-08-05T07:14:20.418Z,100667.16
2022-08-05T07:18:01.835Z,100659.06
2022-08-05T07:22:36.979Z,100661.06
2022-08-05T07:25:22.182Z,100671.16
2022-08-05T07:27:58.526Z,100675.63
2022-08-05T07:30:34.193Z,100682.00
2022-08-05T07:33:05.231Z,100691.88
2022-08-05T07:36:02.439Z,100706.28
2022-08-05T07:38:34.078Z,100699.84
2022-08-05T07:42:08.969Z,100709.75
2022-08-05T07:43:56.332Z,100689.25
2022-08-05T07:46:26.407Z,100684.16
2022-08-05T07:49:01.747Z,100685.22
2022-08-05T07:51:52.838Z,100680.91
2022-08-05T07:54:31.684Z,100670.16
2022-08-05T07:57:13.546Z,100668.34
2022-08-05T07:59:49.004Z,100654.81
2022-08-05T08:02:18.035Z,100663.72
2022-08-05T08:04:48.780Z,100661.72
2022-08-05T08:07:22.456Z,100655.00
2022-08-05T08:09:54.866Z,100656.44
2022-08-05T08:12:37.171Z,100683.00
2022-08-05T08:15:15.648Z,100680.75
2022-08-05T08:17:50.679Z,100693.88
2022-08-05T08:20:45.293Z,100711.44
2022-08-05T08:23:59.694Z,100726.66
2022-08-05T08:25:59.809Z,100739.34
2022-08-05T08:28:36.672Z,100727.59
2022-08-05T08:31:15.081Z,100715.22
2022-08-05T08:33:46.155Z,100701.50
2022-08-05T08:36:39.187Z,100699.59
2022-08-05T08:39:15.045Z,100703.16
2022-08-05T08:41:52.310Z,100705.72
2022-08-05T08:45:20.004Z,100689.56
2022-08-05T08:48:07.648Z,100684.69
2022-08-05T08:50:31.103Z,100681.97
2022-08-05T08:53:11.990Z,100677.72
2022-08-05T08:56:05.105Z,100692.75
2022-08-05T08:58:37.578Z,100690.88
2022-08-05T09:01:16.630Z,100685.44
2022-08-05T09:03:48.098Z,100681.78
2022-08-05T09:06:20.349Z,100674.91
2022-08-05T09:08:49.668Z,100679.66
2022-08-05T09:11:17.728Z,100687.53
2022-08-05T09:14:53.967Z,100676.59
2022-08-05T09:16:53.930Z,100677.81
2022-08-05T09:19:27.932Z,100674.66
2022-08-05T09:22:23.205Z,100675.59
2022-08-05T09:24:59.848Z,100676.38
2022-08-05T09:28:04.600Z,100675.00
2022-08-05T09:30:23.646Z,100686.03
2022-08-05T09:32:52.936Z,100691.81
2022-08-05T09:35:27.293Z,100684.56
2022-08-05T09:38:12.310Z,100674.00
2022-08-05T09:40:53.702Z,100686.00
2022-08-05T09:43:41.005Z,100691.59
2022-08-05T09:46:27.622Z,100678.13
2022-08-05T09:49:07.625Z,100681.81
2022-08-05T09:51:49.357Z,100681.16
2022-08-05T09:54:21.343Z,100692.00
2022-08-05T09:56:57.541Z,100679.47
2022-08-05T09:59:27.615Z,100682.19
2022-08-05T10:01:58.402Z,100691.78
2022-08-05T10:04:38.482Z,100677.06
2022-08-05T10:07:19.729Z,100685.78
2022-08-05T10:10:13.732Z,100684.53
2022-08-05T10:12:50.060Z,100677.34
2022-08-05T10:15:26.559Z,100670.72
2022-08-05T10:18:22.964Z,100688.97
2022-08-05T10:20:53.469Z,100683.06
2022-08-05T10:23:50.928Z,100692.16
2022-08-05T10:26:13.816Z,100695.59
2022-08-05T10:28:43.608Z,100686.25
2022-08-05T10:32:48.155Z,100701.38
2022-08-05T10:34:01.917Z,100698.66
2022-08-05T10:36:30.954Z,100690.53
2022-08-05T10:39:10.187Z,100688.53
2022-08-05T10:41:47.624Z,100688.19
2022-08-05T10:44:19.438Z,100693.22
2022-08-05T10:46:50.674Z,100688.66
2022-08-05T10:49:26.966Z,100688.84
2022-08-05T10:52:00.336Z,100692.09
2022-08-05T10:54:56.025Z,100689.13
2022-08-05T10:57:29.548Z,100692.91
2022-08-05T11:00:19.784Z,100690.63
2022-08-05T11:03:25.054Z,100693.25
2022-08-05T11:06:06.115Z,100693.69
2022-08-05T11:08:39.129Z,100692.31
2022-08-05T11:11:44.340Z,100695.56
2022-08-05T11:14:13.829Z,100692.72
2022-08-05T11:16:56.099Z,100694.19
2022-08-05T11:20:16.937Z,100693.13
2022-08-05T11:22:42.297Z,100673.72
2022-08-05T11:26:05.595Z,100675.03
2022-08-05T11:28:44.304Z,100684.25
2022-08-05T11:31:58.375Z,100698.94
2022-08-05T11:34:37.332Z,100696.06
2022-08-05T11:37:06.119Z,100705.44
2022-08-05T11:40:00.818Z,100703.81
2022-08-05T11:42:40.244Z,100699.34
2022-08-05T11:45:23.278Z,100688.31
2022-08-05T11:47:58.804Z,100704.25
2022-08-05T11:50:27.242Z,100695.69
2022-08-05T11:52:58.182Z,100695.03
2022-08-05T11:55:32.040Z,100683.41
2022-08-05T11:58:09.999Z,100691.16
2022-08-05T12:00:44.456Z,100690.09
2022-08-05T12:03:28.656Z,100681.69
2022-08-05T12:06:01.992Z,100680.16
2022-08-05T12:08:32.668Z,100678.19
2022-08-05T12:11:05.684Z,100688.88
2022-08-05T12:13:48.973Z,100686.38
2022-08-05T12:16:25.693Z,100677.03
2022-08-05T12:18:55.336Z,100679.28
2022-08-05T12:21:30.214Z,100688.22
2022-08-05T12:24:06.699Z,100696.06
2022-08-05T12:26:37.311Z,100701.16
2022-08-05T12:29:09.669Z,100700.28
2022-08-05T12:31:49.818Z,100710.34
2022-08-05T12:34:23.791Z,100694.69
2022-08-05T12:36:54.876Z,100690.63
2022-08-05T12:39:28.081Z,100696.69
2022-08-05T12:42:02.315Z,100698.19
2022-08-05T12:44:33.266Z,100701.28
2022-08-05T12:47:03.835Z,100686.88
2022-08-05T12:50:04.492Z,100698.13
2022-08-05T12:52:38.143Z,100697.00
2022-08-05T12:55:22.258Z,100716.75
2022-08-05T12:58:49.931Z,100713.72
2022-08-05T13:02:05.074Z,100719.72
2022-08-05T13:03:41.553Z,100717.63
2022-08-05T13:06:15.977Z,100715.19
2022-08-05T13:08:50.638Z,100714.75
2022-08-05T13:11:25.491Z,100717.72
2022-08-05T13:14:25.046Z,100734.09
2022-08-05T13:17:08.884Z,100725.41
2022-08-05T13:19:52.455Z,100719.28
2022-08-05T13:22:29.188Z,100731.31
2022-08-05T13:25:00.631Z,100740.19
2022-08-05T13:27:38.670Z,100739.97
2022-08-05T13:30:35.144Z,100752.22
2022-08-05T13:33:01.203Z,100756.50
2022-08-05T13:35:47.073Z,100748.72
2022-08-05T13:38:28.516Z,100760.69
2022-08-05T13:41:02.256Z,100763.16
2022-08-05T13:43:44.020Z,100761.72
2022-08-05T13:46:14.814Z,100765.72
2022-08-05T13:48:57.308Z,100766.59
2022-08-05T13:51:36.416Z,100775.13
2022-08-05T13:54:12.971Z,100773.69
2022-08-05T13:56:45.014Z,100761.41
2022-08-05T13:59:21.386Z,100763.34
2022-08-05T14:01:58.038Z,100791.34
2022-08-05T14:04:50.590Z,100799.34
2022-08-05T14:07:59.517Z,100803.38
2022-08-05T14:10:18.350Z,100817.31
2022-08-05T14:12:48.600Z,100821.84
2022-08-05T14:16:06.927Z,100825.34
2022-08-05T14:18:05.655Z,100837.44
2022-08-05T14:20:33.558Z,100828.38
2022-08-05T14:23:02.858Z,100821.53
2022-08-05T14:25:30.762Z,100831.22
2022-08-05T14:27:59.058Z,100839.16
2022-08-05T14:30:28.331Z,100861.28
2022-08-05T14:32:58.807Z,100873.91
2022-08-05T14:35:36.299Z,100888.88
2022-08-05T14:38:32.458Z,100906.53
2022-08-05T14:41:05.836Z,100915.25
2022-08-05T14:43:58.767Z,100915.84
2022-08-05T14:46:28.108Z,100904.09
2022-08-05T14:48:57.978Z,100912.13
2022-08-05T14:51:30.716Z,100908.31
2022-08-05T14:54:26.953Z,100924.41
2022-08-05T14:56:48.310Z,100917.28
2022-08-05T14:59:16.330Z,100923.84
2022-08-05T15:01:47.848Z,100930.47
2022-08-05T15:04:17.342Z,100934.41
2022-08-05T15:06:49.382Z,100943.53
2022-08-05T15:09:51.841Z,100951.63
2022-08-05T15:12:09.339Z,100959.03
2022-08-05T15:14:48.279Z,100974.81
2022-08-05T15:17:44.762Z,100978.09
2022-08-05T15:20:11.982Z,100989.25
2022-08-05T15:22:45.477Z,100982.53
2022-08-05T15:25:14.857Z,100983.00
2022-08-05T15:27:52.366Z,100993.97
2022-08-05T15:30:20.726Z,100995.03
2022-08-05T15:32:50.340Z,100995.13
2022-08-05T15:35:18.634Z,100997.94
2022-08-05T15:38:32.903Z,100999.81
2022-08-05T15:41:02.716Z,101007.97
2022-08-05T15:43:27.380Z,101018.06
2022-08-05T15:46:00.626Z,101018.28
2022-08-05T15:48:30.135Z,101015.69
2022-08-05T15:51:03.285Z,101019.09
2022-08-05T15:53:37.904Z,101010.91
2022-08-05T15:56:19.602Z,101006.22
2022-08-05T15:58:48.259Z,101014.25
2022-08-05T16:01:18.979Z,101015.88
2022-08-05T16:03:50.478Z,101022.16
2022-08-05T16:06:20.894Z,101028.50
2022-08-05T16:08:55.319Z,101031.13
2022-08-05T16:11:43.167Z,101041.28
2022-08-05T16:14:17.042Z,101047.03
2022-08-05T16:16:46.528Z,101051.72
2022-08-05T16:19:25.887Z,101050.06
2022-08-05T16:22:03.027Z,101050.00
2022-08-05T16:24:40.087Z,101064.19
2022-08-05T16:27:15.962Z,101064.94
2022-08-05T16:29:50.383Z,101056.84
2022-08-05T16:32:28.530Z,101061.09
2022-08-05T16:34:58.753Z,101060.00
2022-08-05T16:38:16.375Z,101071.59
2022-08-05T16:40:28.939Z,101079.69
2022-08-05T16:42:58.589Z,101080.41
2022-08-05T16:46:06.745Z,101079.53
2022-08-05T16:48:26.012Z,101085.03
2022-08-05T16:51:01.629Z,101085.22
2022-08-05T16:53:32.134Z,101094.13
2022-08-05T16:56:17.334Z,101098.47
2022-08-05T16:58:46.480Z,101094.88
2022-08-05T17:01:14.671Z,101096.47
2022-08-05T17:03:42.568Z,101100.03
2022-08-05T17:06:10.981Z,101096.53
2022-08-05T17:08:53.581Z,101101.13
2022-08-05T17:11:23.887Z,101083.16
2022-08-05T17:14:05.583Z,101086.78
2022-08-05T17:16:36.201Z,101090.25
2022-08-05T17:19:07.121Z,101097.41
2022-08-05T17:21:36.946Z,101102.75
2022-08-05T17:24:14.310Z,101102.75
2022-08-05T17:26:55.364Z,101102.81
2022-08-05T17:29:40.260Z,101105.50
2022-08-05T17:32:11.935Z,101096.59
2022-08-05T17:34:47.655Z,101099.34
2022-08-05T17:37:39.508Z,101101.19
2022-08-05T17:40:10.738Z,101108.50
2022-08-05T17:42:41.802Z,101109.50
2022-08-05T17:45:22.904Z,101117.59
2022-08-05T17:47:56.067Z,101114.91
2022-08-05T17:50:29.958Z,101132.91
2022-08-05T17:53:00.142Z,101133.03
2022-08-05T17:55:37.664Z,101128.66
2022-08-05T17:58:09.421Z,101140.38
2022-08-05T18:00:45.395Z,101145.81
2022-08-05T18:03:39.199Z,101143.25
2022-08-05T18:06:11.853Z,101143.19
2022-08-05T18:08:46.198Z,101149.50
2022-08-05T18:11:23.830Z,101146.69
2022-08-05T18:13:54.673Z,101153.84
2022-08-05T18:16:24.586Z,101156.56
2022-08-05T18:18:52.390Z,101162.00
2022-08-05T18:21:22.816Z,101160.28
2022-08-05T18:23:54.299Z,101163.91
2022-08-05T18:26:27.727Z,101164.78
2022-08-05T18:28:58.029Z,101172.88
2022-08-05T18:31:33.963Z,101168.50
2022-08-05T18:34:06.197Z,101174.00
2022-08-05T18:36:36.027Z,101172.28
2022-08-05T18:39:09.714Z,101167.00
2022-08-05T18:41:58.534Z,101166.25
2022-08-05T18:44:34.777Z,101170.13
2022-08-05T18:47:05.041Z,101166.66
2022-08-05T18:49:58.039Z,101176.69
2022-08-05T18:52:35.729Z,101185.06
2022-08-05T18:55:06.474Z,101186.03
2022-08-05T18:57:43.626Z,101184.47
2022-08-05T19:00:21.056Z,101193.66
2022-08-05T19:03:03.916Z,101190.16
2022-08-05T19:06:13.575Z,101203.72
2022-08-05T19:08:30.601Z,101205.78
2022-08-05T19:11:04.444Z,101210.41
2022-08-05T19:13:36.026Z,101212.31
2022-08-05T19:16:24.421Z,101215.97
2022-08-05T19:18:56.815Z,101220.56
2022-08-05T19:21:29.407Z,101215.25
2022-08-05T19:24:07.724Z,101238.63
2022-08-05T19:26:43.809Z,101235.13
2022-08-05T19:29:35.479Z,101245.03
2022-08-05T19:32:05.168Z,101239.75
2022-08-05T19:34:37.697Z,101244.31
2022-08-05T19:37:06.490Z,101239.19
2022-08-05T19:39:45.608Z,101248.25
2022-08-05T19:42:19.387Z,101251.97
2022-08-05T19:45:06.009Z,101258.31
2022-08-05T19:47:34.335Z,101260.25
2022-08-05T19:50:07.735Z,101257.59
2022-08-05T19:52:40.763Z,101263.09
2022-08-05T19:56:14.630Z,101261.41
2022-08-05T19:58:10.409Z,101266.84
2022-08-05T20:00:46.518Z,101263.38
2022-08-05T20:03:14.757Z,101269.75
2022-08-05T20:05:51.263Z,101269.81
2022-08-05T20:08:20.757Z,101272.66
2022-08-05T20:10:53.025Z,101274.59
2022-08-05T20:13:30.391Z,101282.84
2022-08-05T20:16:09.951Z,101280.25
2022-08-05T20:18:38.386Z,101285.72
2022-08-05T20:21:08.833Z,101289.38
2022-08-05T20:23:40.714Z,101295.75
2022-08-05T20:26:19.962Z,101298.53
2022-08-05T20:28:50.672Z,101307.59
2022-08-05T20:31:21.823Z,101312.09
2022-08-05T20:33:51.030Z,101320.25
2022-08-05T20:36:21.450Z,101323.00
2022-08-05T20:38:54.401Z,101327.59
2022-08-05T20:41:44.564Z,101342.84
2022-08-05T20:44:18.694Z,101334.81
2022-08-05T20:46:57.785Z,101345.66
2022-08-05T20:49:26.162Z,101349.28
2022-08-05T20:51:57.337Z,101343.94
2022-08-05T20:54:43.514Z,101344.03
2022-08-05T20:57:15.035Z,101345.91
2022-08-05T21:00:19.638Z,101350.50
2022-08-05T21:02:55.422Z,101351.47
2022-08-05T21:05:25.122Z,101365.88
2022-08-05T21:07:54.359Z,101368.69
2022-08-05T21:10:27.445Z,101373.34
2022-08-05T21:13:08.840Z,101377.03
2022-08-05T21:15:44.318Z,101382.59
2022-08-05T21:18:12.370Z,101386.31
2022-08-05T21:20:41.948Z,101395.38
2022-08-05T21:23:13.001Z,101404.44
2022-08-05T21:25:44.743Z,101401.03
2022-08-05T21:28:12.820Z,101403.81
2022-08-05T21:30:46.548Z,101404.84
2022-08-05T21:33:22.518Z,101409.44
2022-08-05T21:35:58.825Z,101414.91
2022-08-05T21:38:28.519Z,101415.91
2022-08-05T21:40:56.683Z,101425.81
2022-08-05T21:43:25.924Z,101425.91
2022-08-05T21:45:57.854Z,101425.09
2022-08-05T21:48:28.791Z,101434.09
2022-08-05T21:50:57.407Z,101430.66
2022-08-05T21:53:27.212Z,101439.72
2022-08-05T21:56:05.869Z,101434.44
2022-08-05T21:58:57.043Z,101443.44
2022-08-05T22:01:26.297Z,101435.44
2022-08-05T22:03:54.298Z,101424.78
2022-08-05T22:06:35.492Z,101424.94
2022-08-05T22:09:13.647Z,101426.84
2022-08-05T22:11:46.856Z,101437.66
2022-08-05T22:14:34.517Z,101453.88
2022-08-05T22:17:06.572Z,101452.22
2022-08-05T22:20:02.747Z,101444.25
2022-08-05T22:22:28.137Z,101431.88
2022-08-05T22:25:20.922Z,101447.16
2022-08-05T22:28:08.827Z,101454.44
2022-08-05T22:30:43.994Z,101460.78
2022-08-05T22:33:58.514Z,101475.22
2022-08-05T22:36:14.466Z,101469.88
2022-08-05T22:38:43.998Z,101472.63
2022-08-05T22:42:04.152Z,101475.38
2022-08-05T22:44:07.495Z,101479.97
2022-08-05T22:46:39.388Z,101485.41
2022-08-05T22:49:23.452Z,101482.81
2022-08-05T22:52:06.671Z,101497.19
2022-08-05T22:54:37.222Z,101491.00
2022-08-05T22:57:07.331Z,101491.94
2022-08-05T22:59:45.488Z,101494.72
2022-08-05T23:02:17.905Z,101494.78
2022-08-05T23:04:52.196Z,101495.72
2022-08-05T23:07:22.054Z,101506.50
2022-08-05T23:09:58.141Z,101498.47
2022-08-05T23:12:32.687Z,101498.53
2022-08-05T23:15:03.947Z,101507.50
2022-08-05T23:18:02.434Z,101506.66
2022-08-05T23:20:25.346Z,101501.34
2022-08-05T23:22:56.089Z,101504.06
2022-08-05T23:25:51.089Z,101504.94
2022-08-05T23:28:12.857Z,101514.81
2022-08-05T23:30:53.651Z,101525.56
2022-08-05T23:34:03.008Z,101517.56
2022-08-05T23:36:13.535Z,101522.97
2022-08-05T23:38:43.439Z,101524.81
2022-08-05T23:41:12.168Z,101532.00
2022-08-05T23:44:06.073Z,101539.13
2022-08-05T23:46:30.275Z,101545.44
2022-08-05T23:49:00.305Z,101541.00
2022-08-05T23:51:53.363Z,101552.66
2022-08-05T23:54:25.949Z,101561.59
2022-08-05T23:56:58.276Z,101567.88
